createdAt,value
2017-08-31T00:02:21.475Z,9.17
2017-08-31T00:04:49.917Z,11.47
2017-08-31T00:07:18.156Z,9.47
2017-08-31T00:09:46.456Z,10.57
2017-08-31T00:12:15.075Z,9.27
2017-08-31T00:14:43.734Z,10.30
2017-08-31T00:17:12.511Z,10.20
2017-08-31T00:19:41.352Z,10.43
2017-08-31T00:22:10.847Z,9.87
2017-08-31T00:24:39.895Z,8.40
2017-08-31T00:27:08.694Z,11.03
2017-08-31T00:29:38.146Z,10.30
2017-08-31T00:32:07.043Z,9.97
2017-08-31T00:34:35.821Z,8.87
2017-08-31T00:37:04.730Z,10.07
2017-08-31T00:39:33.533Z,11.13
2017-08-31T00:42:02.215Z,10.63
2017-08-31T00:44:30.648Z,13.60
2017-08-31T00:46:58.912Z,9.93
2017-08-31T00:49:27.178Z,10.50
2017-08-31T00:51:55.767Z,8.13
2017-08-31T00:54:24.929Z,14.10
2017-08-31T00:56:53.654Z,10.60
2017-08-31T00:59:22.490Z,10.33
2017-08-31T01:01:51.211Z,11.43
2017-08-31T01:04:19.950Z,10.73
2017-08-31T01:06:48.691Z,14.33
2017-08-31T01:09:17.726Z,8.10
2017-08-31T01:11:46.361Z,9.87
2017-08-31T01:14:15.105Z,11.43
2017-08-31T01:16:44.741Z,9.20
2017-08-31T01:19:13.651Z,9.80
2017-08-31T01:21:42.491Z,13.03
2017-08-31T01:24:10.962Z,13.13
2017-08-31T01:26:39.230Z,9.77
2017-08-31T01:29:08.036Z,10.90
2017-08-31T01:31:36.830Z,8.20
2017-08-31T01:34:05.694Z,9.00
2017-08-31T01:36:34.868Z,11.03
2017-08-31T01:39:03.615Z,10.80
2017-08-31T01:41:32.832Z,9.67
2017-08-31T01:44:02.398Z,8.33
2017-08-31T01:46:31.233Z,11.60
2017-08-31T01:48:59.995Z,12.03
2017-08-31T01:51:29.518Z,9.17
2017-08-31T01:53:58.571Z,11.67
2017-08-31T01:56:27.267Z,10.90
2017-08-31T01:58:55.734Z,12.10
2017-08-31T02:01:25.136Z,10.70
2017-08-31T02:03:54.178Z,9.23
2017-08-31T02:06:23.035Z,13.27
2017-08-31T02:08:51.470Z,10.63
2017-08-31T02:11:20.535Z,13.23
2017-08-31T02:13:49.335Z,15.93
2017-08-31T02:16:17.684Z,12.03
2017-08-31T02:18:46.211Z,10.60
2017-08-31T02:21:14.503Z,11.93
2017-08-31T02:23:43.011Z,10.27
2017-08-31T02:26:11.929Z,9.53
2017-08-31T02:28:40.736Z,10.83
2017-08-31T02:31:09.444Z,9.20
2017-08-31T02:33:38.384Z,12.73
2017-08-31T02:36:07.756Z,11.97
2017-08-31T02:38:36.313Z,10.90
2017-08-31T02:41:04.960Z,11.43
2017-08-31T02:43:33.842Z,12.40
2017-08-31T02:46:02.155Z,10.07
2017-08-31T02:48:30.684Z,12.40
2017-08-31T02:50:59.506Z,11.67
2017-08-31T02:53:27.903Z,12.10
2017-08-31T02:55:56.681Z,11.00
2017-08-31T02:58:25.541Z,10.80
2017-08-31T03:00:53.785Z,12.63
2017-08-31T03:03:22.277Z,11.70
2017-08-31T03:05:50.747Z,12.80
2017-08-31T03:08:19.069Z,12.13
2017-08-31T03:10:47.325Z,11.90
2017-08-31T03:13:15.573Z,11.70
2017-08-31T03:15:43.832Z,11.20
2017-08-31T03:18:12.223Z,15.43
2017-08-31T03:20:40.483Z,13.10
2017-08-31T03:23:08.744Z,11.33
2017-08-31T03:25:37.156Z,10.47
2017-08-31T03:28:05.397Z,15.07
2017-08-31T03:30:33.641Z,11.00
2017-08-31T03:33:02.120Z,15.53
2017-08-31T03:35:30.364Z,13.93
2017-08-31T03:37:58.603Z,12.80
2017-08-31T03:40:26.896Z,10.90
2017-08-31T03:42:55.158Z,11.40
2017-08-31T03:45:23.449Z,13.30
2017-08-31T03:47:51.986Z,13.67
2017-08-31T03:50:20.229Z,16.00
2017-08-31T03:52:48.467Z,14.80
2017-08-31T03:55:17.132Z,14.17
2017-08-31T03:57:45.393Z,11.93
2017-08-31T04:00:13.640Z,12.50
2017-08-31T04:02:41.918Z,10.10
2017-08-31T04:05:10.156Z,15.40
2017-08-31T04:07:38.404Z,13.13
2017-08-31T04:10:06.765Z,11.27
2017-08-31T04:12:35.024Z,16.87
2017-08-31T04:15:03.571Z,16.70
2017-08-31T04:17:31.848Z,11.83
2017-08-31T04:20:00.748Z,19.93
2017-08-31T04:22:29.001Z,15.77
2017-08-31T04:24:57.302Z,13.50
2017-08-31T04:27:25.579Z,15.90
2017-08-31T04:29:54.660Z,12.63
2017-08-31T04:32:22.942Z,15.10
2017-08-31T04:34:51.191Z,19.80
2017-08-31T04:37:19.461Z,13.43
2017-08-31T04:39:47.760Z,14.07
2017-08-31T04:42:16.005Z,15.83
2017-08-31T04:44:44.268Z,12.60
2017-08-31T04:47:12.545Z,13.33
2017-08-31T04:49:40.802Z,14.80
2017-08-31T04:52:09.071Z,13.50
2017-08-31T04:54:37.360Z,12.73
2017-08-31T04:57:05.613Z,14.90
2017-08-31T04:59:33.895Z,15.00
2017-08-31T05:02:02.268Z,21.37
2017-08-31T05:04:30.572Z,16.10
2017-08-31T05:06:58.837Z,13.67
2017-08-31T05:09:27.884Z,15.50
2017-08-31T05:11:56.125Z,20.13
2017-08-31T05:14:24.448Z,15.47
2017-08-31T05:16:52.902Z,15.70
2017-08-31T05:19:21.153Z,14.80
2017-08-31T05:21:49.406Z,18.37
2017-08-31T05:24:17.708Z,17.90
2017-08-31T05:26:45.970Z,19.27
2017-08-31T05:29:14.228Z,16.57
2017-08-31T05:31:42.528Z,18.20
2017-08-31T05:34:10.799Z,15.90
2017-08-31T05:36:39.069Z,17.63
2017-08-31T05:39:07.509Z,16.73
2017-08-31T05:41:36.000Z,18.57
2017-08-31T05:44:04.267Z,23.87
2017-08-31T05:46:32.552Z,21.07
2017-08-31T05:49:00.789Z,19.10
2017-08-31T05:51:29.059Z,20.93
2017-08-31T05:53:57.408Z,17.30
2017-08-31T05:56:25.929Z,20.03
2017-08-31T05:58:54.171Z,23.33
2017-08-31T06:01:23.305Z,24.40
2017-08-31T06:03:51.603Z,31.30
2017-08-31T06:06:19.884Z,23.20
2017-08-31T06:08:48.173Z,17.27
2017-08-31T06:11:16.425Z,19.37
2017-08-31T06:13:44.693Z,21.77
2017-08-31T06:16:13.414Z,20.87
2017-08-31T06:18:41.720Z,17.67
2017-08-31T06:21:10.008Z,16.50
2017-08-31T06:23:38.338Z,17.73
2017-08-31T06:26:06.595Z,18.37
2017-08-31T06:28:34.852Z,22.50
2017-08-31T06:31:03.213Z,18.30
2017-08-31T06:33:31.686Z,16.17
2017-08-31T06:35:59.936Z,17.77
2017-08-31T06:38:28.212Z,22.03
2017-08-31T06:40:56.464Z,19.83
2017-08-31T06:43:24.779Z,19.13
2017-08-31T06:45:53.352Z,20.23
2017-08-31T06:48:21.640Z,19.63
2017-08-31T06:50:49.886Z,21.60
2017-08-31T06:53:18.316Z,20.63
2017-08-31T06:55:46.625Z,21.03
2017-08-31T06:58:14.888Z,18.10
2017-08-31T07:00:43.168Z,20.00
2017-08-31T07:03:11.438Z,20.07
2017-08-31T07:05:39.730Z,18.70
2017-08-31T07:08:08.254Z,18.53
2017-08-31T07:10:36.504Z,18.70
2017-08-31T07:13:04.766Z,15.13
2017-08-31T07:15:33.092Z,15.17
2017-08-31T07:18:01.668Z,13.73
2017-08-31T07:20:29.951Z,14.00
2017-08-31T07:22:58.248Z,14.20
2017-08-31T07:25:26.503Z,18.87
2017-08-31T07:27:54.754Z,15.10
2017-08-31T07:30:23.065Z,16.03
2017-08-31T07:32:51.422Z,13.63
2017-08-31T07:35:19.655Z,14.13
2017-08-31T07:37:48.102Z,16.63
2017-08-31T07:40:16.366Z,20.17
2017-08-31T07:42:44.641Z,14.20
2017-08-31T07:45:13.087Z,13.80
2017-08-31T07:47:41.343Z,13.40
2017-08-31T07:50:09.589Z,18.60
2017-08-31T07:52:37.884Z,19.60
2017-08-31T07:55:06.164Z,17.73
2017-08-31T07:57:34.755Z,17.23
2017-08-31T08:00:03.379Z,16.70
2017-08-31T08:02:31.611Z,16.40
2017-08-31T08:04:59.860Z,15.93
2017-08-31T08:07:28.159Z,14.27
2017-08-31T08:09:56.408Z,15.90
2017-08-31T08:12:24.659Z,15.70
2017-08-31T08:14:53.116Z,13.60
2017-08-31T08:17:21.357Z,15.60
2017-08-31T08:19:49.760Z,13.50
2017-08-31T08:22:18.078Z,16.70
2017-08-31T08:24:46.953Z,25.03
2017-08-31T08:27:15.209Z,19.00
2017-08-31T08:29:43.548Z,15.73
2017-08-31T08:32:12.060Z,20.70
2017-08-31T08:34:41.128Z,26.03
2017-08-31T08:37:09.484Z,10.57
2017-08-31T08:39:38.614Z,11.80
2017-08-31T08:42:06.854Z,13.80
2017-08-31T08:44:35.375Z,9.20
2017-08-31T08:47:03.652Z,15.27
2017-08-31T08:49:31.937Z,11.33
2017-08-31T08:52:00.237Z,12.00
2017-08-31T08:54:28.484Z,12.80
2017-08-31T08:56:56.729Z,11.10
2017-08-31T08:59:25.263Z,7.80
2017-08-31T09:01:53.951Z,15.63
2017-08-31T09:04:22.192Z,14.07
2017-08-31T09:06:50.506Z,12.03
2017-08-31T09:09:18.768Z,14.73
2017-08-31T09:11:47.020Z,10.53
2017-08-31T09:14:15.545Z,10.00
2017-08-31T09:16:43.825Z,12.30
2017-08-31T09:19:12.469Z,15.27
2017-08-31T09:21:40.728Z,11.33
2017-08-31T09:24:09.005Z,15.57
2017-08-31T09:26:37.264Z,20.17
2017-08-31T09:29:06.417Z,18.10
2017-08-31T09:31:34.648Z,10.07
2017-08-31T09:34:02.903Z,9.80
2017-08-31T09:36:31.173Z,12.23
2017-08-31T09:38:59.412Z,14.57
2017-08-31T09:41:27.658Z,10.23
2017-08-31T09:43:55.988Z,16.87
2017-08-31T09:46:24.258Z,12.40
2017-08-31T09:48:52.563Z,15.87
2017-08-31T09:51:21.535Z,12.47
2017-08-31T09:53:49.825Z,13.80
2017-08-31T09:56:18.505Z,17.20
2017-08-31T09:58:47.066Z,14.33
2017-08-31T10:01:15.328Z,13.93
2017-08-31T10:03:43.593Z,14.73
2017-08-31T10:06:11.888Z,12.63
2017-08-31T10:08:40.144Z,12.83
2017-08-31T10:11:08.390Z,11.10
2017-08-31T10:13:37.359Z,17.23
2017-08-31T10:16:05.624Z,13.30
2017-08-31T10:18:33.872Z,13.57
2017-08-31T10:21:02.150Z,11.13
2017-08-31T10:23:31.213Z,19.93
2017-08-31T10:25:59.461Z,15.57
2017-08-31T10:28:27.872Z,15.30
2017-08-31T10:30:56.129Z,13.97
2017-08-31T10:33:24.427Z,14.03
2017-08-31T10:35:52.740Z,16.13
2017-08-31T10:38:20.988Z,15.23
2017-08-31T10:40:49.232Z,11.37
2017-08-31T10:43:17.516Z,11.67
2017-08-31T10:45:45.789Z,10.50
2017-08-31T10:48:14.044Z,12.80
2017-08-31T10:50:42.320Z,14.70
2017-08-31T10:53:10.604Z,12.70
2017-08-31T10:55:38.927Z,12.60
2017-08-31T10:58:07.220Z,14.97
2017-08-31T11:00:35.509Z,10.93
2017-08-31T11:03:03.863Z,9.97
2017-08-31T11:05:32.309Z,12.30
2017-08-31T11:08:00.676Z,9.40
2017-08-31T11:10:29.064Z,10.60
2017-08-31T11:12:57.464Z,11.90
2017-08-31T11:15:26.618Z,8.07
2017-08-31T11:17:54.874Z,8.50
2017-08-31T11:20:23.203Z,7.73
2017-08-31T11:22:51.452Z,8.87
2017-08-31T11:25:19.705Z,15.37
2017-08-31T11:27:48.018Z,7.10
2017-08-31T11:30:16.399Z,9.10
2017-08-31T11:32:44.593Z,7.60
2017-08-31T11:35:13.006Z,7.60
2017-08-31T11:37:41.843Z,7.20
2017-08-31T11:40:10.096Z,7.53
2017-08-31T11:42:38.849Z,11.17
2017-08-31T11:45:07.119Z,10.53
2017-08-31T11:47:35.737Z,12.07
2017-08-31T11:50:04.061Z,11.77
2017-08-31T11:52:32.341Z,11.53
2017-08-31T11:55:00.619Z,8.47
2017-08-31T11:57:28.905Z,7.00
2017-08-31T11:59:57.146Z,5.80
2017-08-31T12:02:25.402Z,6.80
2017-08-31T12:04:53.685Z,10.03
2017-08-31T12:07:22.164Z,9.77
2017-08-31T12:09:52.613Z,7.97
2017-08-31T12:12:20.891Z,8.00
2017-08-31T12:14:49.891Z,8.17
2017-08-31T12:17:19.129Z,7.27
2017-08-31T12:19:47.923Z,9.40
2017-08-31T12:22:17.004Z,6.07
2017-08-31T12:24:45.480Z,7.30
2017-08-31T12:27:13.774Z,6.13
2017-08-31T12:29:42.253Z,9.77
2017-08-31T12:32:10.528Z,10.43
2017-08-31T12:34:38.881Z,7.10
2017-08-31T12:37:07.141Z,7.73
2017-08-31T12:39:35.509Z,5.20
2017-08-31T12:42:03.787Z,8.60
2017-08-31T12:44:32.052Z,9.03
2017-08-31T12:47:00.329Z,3.43
2017-08-31T12:49:28.768Z,9.40
2017-08-31T12:51:57.017Z,5.07
2017-08-31T12:54:25.344Z,16.87
2017-08-31T12:56:53.656Z,15.40
2017-08-31T12:59:22.351Z,17.00
2017-08-31T13:01:51.440Z,9.97
2017-08-31T13:04:20.578Z,10.07
2017-08-31T13:06:48.808Z,11.43
2017-08-31T13:09:17.072Z,14.40
2017-08-31T13:11:45.399Z,9.63
2017-08-31T13:14:14.409Z,11.17
2017-08-31T13:16:43.029Z,11.33
2017-08-31T13:19:11.388Z,15.37
2017-08-31T13:21:39.619Z,13.53
2017-08-31T13:24:08.397Z,17.03
2017-08-31T13:26:36.844Z,21.90
2017-08-31T13:29:05.961Z,19.70
2017-08-31T13:31:34.205Z,21.30
2017-08-31T13:34:02.487Z,22.57
2017-08-31T13:36:31.365Z,19.67
2017-08-31T13:38:59.626Z,23.30
2017-08-31T13:41:27.904Z,20.70
2017-08-31T13:43:56.384Z,21.03
2017-08-31T13:46:24.675Z,16.37
2017-08-31T13:48:53.262Z,19.80
2017-08-31T13:51:21.532Z,16.53
2017-08-31T13:53:50.568Z,11.60
2017-08-31T13:56:18.848Z,13.17
2017-08-31T13:58:47.938Z,12.47
2017-08-31T14:01:16.203Z,12.27
2017-08-31T14:03:44.716Z,13.80
2017-08-31T14:06:13.801Z,10.27
2017-08-31T14:08:42.067Z,13.57
2017-08-31T14:11:10.493Z,12.07
2017-08-31T14:13:38.781Z,14.73
2017-08-31T14:16:07.257Z,9.17
2017-08-31T14:18:35.546Z,7.60
2017-08-31T14:21:03.806Z,7.53
2017-08-31T14:23:32.036Z,8.17
2017-08-31T14:26:00.363Z,14.10
2017-08-31T14:28:28.672Z,8.17
2017-08-31T14:30:57.152Z,7.30
2017-08-31T14:33:25.416Z,5.73
2017-08-31T14:35:53.657Z,7.63
2017-08-31T14:38:22.352Z,8.17
2017-08-31T14:40:50.677Z,5.20
2017-08-31T14:43:18.940Z,5.13
2017-08-31T14:45:47.192Z,6.87
2017-08-31T14:48:15.598Z,6.77
2017-08-31T14:50:44.004Z,5.93
2017-08-31T14:53:12.309Z,5.97
2017-08-31T14:55:41.754Z,7.33
2017-08-31T14:58:11.155Z,5.50
2017-08-31T15:00:40.249Z,6.40
2017-08-31T15:03:08.944Z,7.33
2017-08-31T15:05:37.225Z,4.30
2017-08-31T15:08:05.497Z,5.90
2017-08-31T15:10:33.904Z,6.67
2017-08-31T15:13:02.151Z,4.40
2017-08-31T15:15:31.264Z,5.47
2017-08-31T15:17:59.533Z,4.80
2017-08-31T15:20:28.906Z,5.07
2017-08-31T15:22:57.133Z,4.27
2017-08-31T15:25:25.459Z,5.13
2017-08-31T15:27:54.393Z,5.30
2017-08-31T15:30:22.839Z,5.70
2017-08-31T15:32:51.877Z,4.57
2017-08-31T15:35:20.140Z,4.97
2017-08-31T15:37:48.390Z,4.33
2017-08-31T15:40:16.687Z,3.90
2017-08-31T15:42:46.033Z,4.80
2017-08-31T15:45:14.265Z,4.43
2017-08-31T15:47:42.539Z,4.40
2017-08-31T15:50:10.778Z,15.50
2017-08-31T15:52:39.031Z,3.90
2017-08-31T15:55:07.457Z,4.30
2017-08-31T15:57:35.693Z,3.40
2017-08-31T16:00:03.934Z,5.87
2017-08-31T16:02:32.448Z,3.43
2017-08-31T16:05:00.729Z,3.20
2017-08-31T16:07:29.092Z,6.83
2017-08-31T16:09:57.388Z,3.53
2017-08-31T16:12:26.654Z,4.37
2017-08-31T16:14:54.898Z,3.37
2017-08-31T16:17:23.199Z,3.77
2017-08-31T16:19:52.212Z,6.87
2017-08-31T16:22:20.820Z,12.17
2017-08-31T16:24:49.456Z,7.37
2017-08-31T16:27:17.697Z,7.30
2017-08-31T16:29:45.949Z,6.73
2017-08-31T16:32:14.228Z,5.20
2017-08-31T16:34:42.473Z,6.23
2017-08-31T16:37:10.768Z,5.73
2017-08-31T16:39:39.042Z,7.17
2017-08-31T16:42:07.360Z,4.77
2017-08-31T16:44:35.829Z,5.00
2017-08-31T16:47:04.392Z,3.43
2017-08-31T16:49:32.848Z,3.03
2017-08-31T16:52:01.080Z,4.10
2017-08-31T16:54:29.387Z,2.77
2017-08-31T16:56:57.706Z,5.87
2017-08-31T16:59:26.169Z,3.50
2017-08-31T17:01:54.521Z,3.63
2017-08-31T17:04:22.791Z,3.47
2017-08-31T17:06:51.018Z,4.07
2017-08-31T17:09:19.357Z,2.90
2017-08-31T17:11:47.612Z,3.03
2017-08-31T17:14:16.083Z,3.53
2017-08-31T17:16:44.391Z,7.83
2017-08-31T17:19:12.627Z,3.90
2017-08-31T17:21:40.866Z,3.07
2017-08-31T17:24:09.282Z,4.43
2017-08-31T17:26:37.723Z,2.83
2017-08-31T17:29:05.978Z,2.50
2017-08-31T17:31:34.240Z,4.07
2017-08-31T17:34:02.523Z,5.67
2017-08-31T17:36:30.815Z,4.27
2017-08-31T17:38:59.109Z,3.90
2017-08-31T17:41:27.351Z,3.90
2017-08-31T17:43:55.682Z,3.03
2017-08-31T17:46:24.201Z,5.83
2017-08-31T17:48:52.448Z,3.20
2017-08-31T17:51:20.714Z,5.10
2017-08-31T17:53:49.003Z,4.50
2017-08-31T17:56:17.252Z,5.23
2017-08-31T17:58:45.556Z,1.73
2017-08-31T18:01:14.079Z,2.40
2017-08-31T18:03:42.510Z,5.63
2017-08-31T18:06:10.777Z,4.80
2017-08-31T18:08:39.046Z,3.00
2017-08-31T18:11:07.363Z,2.90
2017-08-31T18:13:35.614Z,3.40
2017-08-31T18:16:03.930Z,3.13
2017-08-31T18:18:32.190Z,6.43
2017-08-31T18:21:01.051Z,1.87
2017-08-31T18:23:29.425Z,1.93
2017-08-31T18:25:57.701Z,2.67
2017-08-31T18:28:26.008Z,1.70
2017-08-31T18:30:54.546Z,7.63
2017-08-31T18:33:22.946Z,2.00
2017-08-31T18:35:51.400Z,2.20
2017-08-31T18:38:19.655Z,5.13
2017-08-31T18:40:47.956Z,11.87
2017-08-31T18:43:16.412Z,13.80
2017-08-31T18:45:44.704Z,10.43
2017-08-31T18:48:12.944Z,4.43
2017-08-31T18:50:41.181Z,3.40
2017-08-31T18:53:10.304Z,3.73
2017-08-31T18:55:38.578Z,5.80
2017-08-31T18:58:06.889Z,6.20
2017-08-31T19:00:36.146Z,10.43
2017-08-31T19:03:04.393Z,4.47
2017-08-31T19:05:32.632Z,2.80
2017-08-31T19:08:01.118Z,2.40
2017-08-31T19:10:29.390Z,4.80
2017-08-31T19:12:57.645Z,3.87
2017-08-31T19:15:26.124Z,3.43
2017-08-31T19:17:54.436Z,8.40
2017-08-31T19:20:22.772Z,5.03
2017-08-31T19:22:51.049Z,6.47
2017-08-31T19:25:19.309Z,5.23
2017-08-31T19:27:47.548Z,7.23
2017-08-31T19:30:15.855Z,3.90
2017-08-31T19:32:44.680Z,3.20
2017-08-31T19:35:13.936Z,4.00
2017-08-31T19:37:42.204Z,4.73
2017-08-31T19:40:10.450Z,4.03
2017-08-31T19:42:38.791Z,2.70
2017-08-31T19:45:07.168Z,2.87
2017-08-31T19:47:35.427Z,3.73
2017-08-31T19:50:03.668Z,5.43
2017-08-31T19:52:32.116Z,6.50
2017-08-31T19:55:00.357Z,5.10
2017-08-31T19:57:28.908Z,14.30
2017-08-31T19:59:57.235Z,3.33
2017-08-31T20:02:25.494Z,3.53
2017-08-31T20:04:53.764Z,3.80
2017-08-31T20:07:22.042Z,3.50
2017-08-31T20:09:50.285Z,3.33
2017-08-31T20:12:18.521Z,2.73
2017-08-31T20:14:46.800Z,2.90
2017-08-31T20:17:15.330Z,2.60
2017-08-31T20:19:43.593Z,2.33
2017-08-31T20:22:11.990Z,2.60
2017-08-31T20:24:40.242Z,3.13
2017-08-31T20:27:08.807Z,6.13
2017-08-31T20:29:37.076Z,3.67
2017-08-31T20:32:05.316Z,3.73
2017-08-31T20:34:33.584Z,6.63
2017-08-31T20:37:02.449Z,2.33
2017-08-31T20:39:30.727Z,3.07
2017-08-31T20:41:58.953Z,3.00
2017-08-31T20:44:27.452Z,4.00
2017-08-31T20:46:55.733Z,5.23
2017-08-31T20:49:24.002Z,4.50
2017-08-31T20:51:53.177Z,3.50
2017-08-31T20:54:21.432Z,2.60
2017-08-31T20:56:49.722Z,2.60
2017-08-31T20:59:18.058Z,2.70
2017-08-31T21:01:46.304Z,3.20
2017-08-31T21:04:14.541Z,2.30
2017-08-31T21:06:42.961Z,4.03
2017-08-31T21:09:11.184Z,4.07
2017-08-31T21:11:39.435Z,3.20
2017-08-31T21:14:07.724Z,2.73
2017-08-31T21:16:35.946Z,2.50
2017-08-31T21:19:04.213Z,4.73
2017-08-31T21:21:32.865Z,2.90
2017-08-31T21:24:01.119Z,3.00
2017-08-31T21:26:29.377Z,2.60
2017-08-31T21:28:57.889Z,3.00
2017-08-31T21:31:26.147Z,4.80
2017-08-31T21:33:54.405Z,3.73
2017-08-31T21:36:22.680Z,2.80
2017-08-31T21:38:50.921Z,2.93
2017-08-31T21:41:19.261Z,3.97
2017-08-31T21:43:47.627Z,6.70
2017-08-31T21:46:15.868Z,2.80
2017-08-31T21:48:44.116Z,4.37
2017-08-31T21:51:12.402Z,4.77
2017-08-31T21:53:40.648Z,3.93
2017-08-31T21:56:08.904Z,5.87
2017-08-31T21:58:38.178Z,9.10
2017-08-31T22:01:06.432Z,3.77
2017-08-31T22:03:35.076Z,5.97
2017-08-31T22:06:04.062Z,5.50
2017-08-31T22:08:32.763Z,6.33
2017-08-31T22:11:01.300Z,6.47
2017-08-31T22:13:29.891Z,3.97
2017-08-31T22:15:59.211Z,4.30
2017-08-31T22:18:28.003Z,3.70
2017-08-31T22:20:57.790Z,5.97
2017-08-31T22:23:26.826Z,3.97
2017-08-31T22:25:55.980Z,8.07
2017-08-31T22:28:24.429Z,5.03
2017-08-31T22:30:54.107Z,3.10
2017-08-31T22:33:22.853Z,4.00
2017-08-31T22:35:51.405Z,6.37
2017-08-31T22:38:19.907Z,6.17
2017-08-31T22:40:49.156Z,6.97
2017-08-31T22:43:18.145Z,5.53
2017-08-31T22:45:46.939Z,10.53
2017-08-31T22:48:15.627Z,5.90
2017-08-31T22:50:44.416Z,8.83
2017-08-31T22:53:13.131Z,8.60
2017-08-31T22:55:41.929Z,7.07
2017-08-31T22:58:15.801Z,9.23
2017-08-31T23:00:44.700Z,4.53
2017-08-31T23:03:13.392Z,5.20
2017-08-31T23:05:42.188Z,4.37
2017-08-31T23:08:11.006Z,7.27
2017-08-31T23:10:40.234Z,9.20
2017-08-31T23:13:08.710Z,4.40
2017-08-31T23:15:37.289Z,7.70
2017-08-31T23:18:05.837Z,4.40
2017-08-31T23:20:34.686Z,5.43
2017-08-31T23:23:03.847Z,4.50
2017-08-31T23:25:32.496Z,4.13
2017-08-31T23:28:01.487Z,4.73
2017-08-31T23:30:29.805Z,5.50
2017-08-31T23:32:58.320Z,4.50
2017-08-31T23:35:26.591Z,2.50
2017-08-31T23:37:55.273Z,7.00
2017-08-31T23:40:23.823Z,10.30
2017-08-31T23:42:53.115Z,5.23
2017-08-31T23:45:22.096Z,6.63
2017-08-31T23:47:50.838Z,5.63
2017-08-31T23:50:19.610Z,6.53
2017-08-31T23:52:47.984Z,6.97
2017-08-31T23:55:16.486Z,3.70
2017-08-31T23:57:45.822Z,3.47
